sensor_id;sensor_type;location;lat;lon;timestamp;P1;durP1;ratioP1;P2;durP2;ratioP2
10896;SDS011;5501;51.176;6.470;2024-03-08T00:04:07;13.35;;;7.20;;
10896;SDS011;5501;51.176;6.470;2024-03-08T00:09:09;12.60;;;7.18;;
10896;SDS011;5501;51.176;6.470;2024-03-08T00:14:11;12.82;;;6.95;;
10896;SDS011;5501;51.176;6.470;2024-03-08T00:19:12;11.32;;;6.72;;
10896;SDS011;5501;51.176;6.470;2024-03-08T00:24:13;15.48;;;7.30;;
10896;SDS011;5501;51.176;6.470;2024-03-08T00:29:15;13.70;;;7.18;;
10896;SDS011;5501;51.176;6.470;2024-03-08T00:34:17;12.13;;;7.47;;
10896;SDS011;5501;51.176;6.470;2024-03-08T00:39:18;14.07;;;7.93;;
10896;SDS011;5501;51.176;6.470;2024-03-08T00:44:22;18.85;;;8.13;;
10896;SDS011;5501;51.176;6.470;2024-03-08T00:49:25;15.90;;;7.47;;
10896;SDS011;5501;51.176;6.470;2024-03-08T00:54:27;13.23;;;7.10;;
10896;SDS011;5501;51.176;6.470;2024-03-08T00:59:31;15.23;;;8.20;;
10896;SDS011;5501;51.176;6.470;2024-03-08T01:04:36;13.05;;;7.65;;
10896;SDS011;5501;51.176;6.470;2024-03-08T01:09:38;14.25;;;7.85;;
10896;SDS011;5501;51.176;6.470;2024-03-08T01:14:39;11.05;;;7.10;;
10896;SDS011;5501;51.176;6.470;2024-03-08T01:19:41;11.25;;;6.72;;
10896;SDS011;5501;51.176;6.470;2024-03-08T01:24:42;15.43;;;8.45;;
10896;SDS011;5501;51.176;6.470;2024-03-08T01:29:44;13.05;;;7.70;;
10896;SDS011;5501;51.176;6.470;2024-03-08T01:34:45;16.40;;;7.90;;
10896;SDS011;5501;51.176;6.470;2024-03-08T01:39:47;16.08;;;8.27;;
10896;SDS011;5501;51.176;6.470;2024-03-08T01:44:48;15.65;;;7.32;;
10896;SDS011;5501;51.176;6.470;2024-03-08T01:49:50;15.63;;;8.90;;
10896;SDS011;5501;51.176;6.470;2024-03-08T01:54:52;13.15;;;7.72;;
10896;SDS011;5501;51.176;6.470;2024-03-08T01:59:54;13.65;;;9.38;;
10896;SDS011;5501;51.176;6.470;2024-03-08T02:04:57;20.95;;;7.80;;
10896;SDS011;5501;51.176;6.470;2024-03-08T02:09:58;16.65;;;8.43;;
10896;SDS011;5501;51.176;6.470;2024-03-08T02:15:00;11.80;;;7.07;;
10896;SDS011;5501;51.176;6.470;2024-03-08T02:20:01;18.08;;;8.07;;
10896;SDS011;5501;51.176;6.470;2024-03-08T02:25:05;16.02;;;8.50;;
10896;SDS011;5501;51.176;6.470;2024-03-08T02:30:07;15.45;;;8.05;;
10896;SDS011;5501;51.176;6.470;2024-03-08T02:35:09;15.05;;;7.93;;
10896;SDS011;5501;51.176;6.470;2024-03-08T02:40:11;20.45;;;8.75;;
10896;SDS011;5501;51.176;6.470;2024-03-08T02:45:13;11.80;;;8.15;;
10896;SDS011;5501;51.176;6.470;2024-03-08T02:50:15;16.85;;;7.80;;
10896;SDS011;5501;51.176;6.470;2024-03-08T02:55:17;14.25;;;8.32;;
10896;SDS011;5501;51.176;6.470;2024-03-08T03:00:19;14.98;;;7.50;;
10896;SDS011;5501;51.176;6.470;2024-03-08T03:05:20;12.88;;;8.43;;
10896;SDS011;5501;51.176;6.470;2024-03-08T03:10:22;15.95;;;7.70;;
10896;SDS011;5501;51.176;6.470;2024-03-08T03:15:24;9.63;;;6.38;;
10896;SDS011;5501;51.176;6.470;2024-03-08T03:20:29;12.80;;;7.15;;
10896;SDS011;5501;51.176;6.470;2024-03-08T03:25:35;15.00;;;7.95;;
10896;SDS011;5501;51.176;6.470;2024-03-08T03:30:37;14.50;;;8.23;;
10896;SDS011;5501;51.176;6.470;2024-03-08T03:35:39;16.75;;;8.05;;
10896;SDS011;5501;51.176;6.470;2024-03-08T03:40:40;12.95;;;7.90;;
10896;SDS011;5501;51.176;6.470;2024-03-08T03:45:43;12.20;;;8.43;;
10896;SDS011;5501;51.176;6.470;2024-03-08T03:50:44;14.07;;;8.48;;
10896;SDS011;5501;51.176;6.470;2024-03-08T03:55:45;16.58;;;7.90;;
10896;SDS011;5501;51.176;6.470;2024-03-08T04:00:48;12.60;;;7.72;;
10896;SDS011;5501;51.176;6.470;2024-03-08T04:05:50;15.60;;;8.77;;
10896;SDS011;5501;51.176;6.470;2024-03-08T04:10:52;14.02;;;7.38;;
10896;SDS011;5501;51.176;6.470;2024-03-08T04:15:53;15.90;;;8.82;;
10896;SDS011;5501;51.176;6.470;2024-03-08T04:20:55;14.75;;;7.90;;
10896;SDS011;5501;51.176;6.470;2024-03-08T04:25:56;20.08;;;8.05;;
10896;SDS011;5501;51.176;6.470;2024-03-08T04:30:58;16.73;;;8.18;;
10896;SDS011;5501;51.176;6.470;2024-03-08T04:36:01;16.05;;;8.15;;
10896;SDS011;5501;51.176;6.470;2024-03-08T04:41:05;16.33;;;8.98;;
10896;SDS011;5501;51.176;6.470;2024-03-08T04:46:07;16.60;;;8.88;;
10896;SDS011;5501;51.176;6.470;2024-03-08T04:51:08;17.38;;;9.10;;
10896;SDS011;5501;51.176;6.470;2024-03-08T04:56:10;14.98;;;8.00;;
10896;SDS011;5501;51.176;6.470;2024-03-08T05:01:12;19.58;;;9.30;;
10896;SDS011;5501;51.176;6.470;2024-03-08T05:06:14;15.88;;;8.82;;
10896;SDS011;5501;51.176;6.470;2024-03-08T05:11:15;19.40;;;9.05;;
10896;SDS011;5501;51.176;6.470;2024-03-08T05:16:17;18.75;;;9.52;;
10896;SDS011;5501;51.176;6.470;2024-03-08T05:21:18;16.88;;;8.52;;
10896;SDS011;5501;51.176;6.470;2024-03-08T05:26:21;18.85;;;8.82;;
10896;SDS011;5501;51.176;6.470;2024-03-08T05:31:23;17.48;;;8.02;;
10896;SDS011;5501;51.176;6.470;2024-03-08T05:36:25;18.98;;;9.20;;
10896;SDS011;5501;51.176;6.470;2024-03-08T05:41:27;14.55;;;8.75;;
10896;SDS011;5501;51.176;6.470;2024-03-08T05:46:28;15.02;;;9.80;;
10896;SDS011;5501;51.176;6.470;2024-03-08T05:51:29;16.15;;;9.13;;
10896;SDS011;5501;51.176;6.470;2024-03-08T05:56:31;13.07;;;8.18;;
10896;SDS011;5501;51.176;6.470;2024-03-08T06:01:33;17.40;;;9.20;;
10896;SDS011;5501;51.176;6.470;2024-03-08T06:06:37;15.02;;;8.07;;
10896;SDS011;5501;51.176;6.470;2024-03-08T06:11:39;17.35;;;8.25;;
10896;SDS011;5501;51.176;6.470;2024-03-08T06:16:41;15.52;;;8.20;;
10896;SDS011;5501;51.176;6.470;2024-03-08T06:21:42;18.23;;;8.45;;
10896;SDS011;5501;51.176;6.470;2024-03-08T06:26:43;18.00;;;7.78;;
10896;SDS011;5501;51.176;6.470;2024-03-08T06:31:45;15.02;;;8.48;;
10896;SDS011;5501;51.176;6.470;2024-03-08T06:36:46;18.80;;;8.52;;
10896;SDS011;5501;51.176;6.470;2024-03-08T06:41:48;13.48;;;7.70;;
10896;SDS011;5501;51.176;6.470;2024-03-08T06:46:52;17.60;;;9.32;;
10896;SDS011;5501;51.176;6.470;2024-03-08T06:51:56;20.17;;;9.02;;
10896;SDS011;5501;51.176;6.470;2024-03-08T06:56:58;24.20;;;8.75;;
10896;SDS011;5501;51.176;6.470;2024-03-08T07:01:59;22.30;;;10.32;;
10896;SDS011;5501;51.176;6.470;2024-03-08T07:07:01;18.05;;;9.52;;
10896;SDS011;5501;51.176;6.470;2024-03-08T07:12:03;19.23;;;10.82;;
10896;SDS011;5501;51.176;6.470;2024-03-08T07:17:06;17.83;;;9.93;;
10896;SDS011;5501;51.176;6.470;2024-03-08T07:22:10;18.17;;;9.93;;
10896;SDS011;5501;51.176;6.470;2024-03-08T07:27:12;21.67;;;9.95;;
10896;SDS011;5501;51.176;6.470;2024-03-08T07:32:14;20.80;;;9.45;;
10896;SDS011;5501;51.176;6.470;2024-03-08T07:37:26;20.58;;;10.75;;
10896;SDS011;5501;51.176;6.470;2024-03-08T07:42:28;16.48;;;8.35;;
10896;SDS011;5501;51.176;6.470;2024-03-08T07:47:29;20.55;;;9.65;;
10896;SDS011;5501;51.176;6.470;2024-03-08T07:52:34;17.88;;;10.63;;
10896;SDS011;5501;51.176;6.470;2024-03-08T07:57:37;18.10;;;9.80;;
10896;SDS011;5501;51.176;6.470;2024-03-08T08:02:41;21.58;;;9.55;;
10896;SDS011;5501;51.176;6.470;2024-03-08T08:07:44;16.13;;;9.95;;
10896;SDS011;5501;51.176;6.470;2024-03-08T08:12:45;19.73;;;8.23;;
10896;SDS011;5501;51.176;6.470;2024-03-08T08:17:47;19.88;;;9.73;;
10896;SDS011;5501;51.176;6.470;2024-03-08T08:22:49;19.95;;;10.38;;
10896;SDS011;5501;51.176;6.470;2024-03-08T08:27:51;18.52;;;10.23;;
10896;SDS011;5501;51.176;6.470;2024-03-08T08:32:55;20.52;;;9.40;;
10896;SDS011;5501;51.176;6.470;2024-03-08T08:38:02;15.43;;;8.90;;
10896;SDS011;5501;51.176;6.470;2024-03-08T08:43:05;18.20;;;10.05;;
10896;SDS011;5501;51.176;6.470;2024-03-08T08:48:08;19.02;;;8.98;;
10896;SDS011;5501;51.176;6.470;2024-03-08T08:53:11;18.90;;;8.75;;
10896;SDS011;5501;51.176;6.470;2024-03-08T08:58:14;16.40;;;9.50;;
10896;SDS011;5501;51.176;6.470;2024-03-08T09:03:16;18.00;;;8.43;;
10896;SDS011;5501;51.176;6.470;2024-03-08T09:08:18;11.95;;;7.22;;
10896;SDS011;5501;51.176;6.470;2024-03-08T09:13:20;15.80;;;8.02;;
10896;SDS011;5501;51.176;6.470;2024-03-08T09:18:32;16.48;;;8.50;;
10896;SDS011;5501;51.176;6.470;2024-03-08T09:23:34;17.70;;;9.07;;
10896;SDS011;5501;51.176;6.470;2024-03-08T09:28:36;14.63;;;8.13;;
10896;SDS011;5501;51.176;6.470;2024-03-08T09:33:39;13.02;;;7.22;;
10896;SDS011;5501;51.176;6.470;2024-03-08T09:38:41;20.05;;;7.95;;
10896;SDS011;5501;51.176;6.470;2024-03-08T09:43:45;14.38;;;8.85;;
10896;SDS011;5501;51.176;6.470;2024-03-08T09:48:47;13.23;;;7.47;;
10896;SDS011;5501;51.176;6.470;2024-03-08T09:53:48;14.05;;;7.20;;
10896;SDS011;5501;51.176;6.470;2024-03-08T09:58:50;12.65;;;7.20;;
10896;SDS011;5501;51.176;6.470;2024-03-08T10:04:07;17.27;;;8.25;;
10896;SDS011;5501;51.176;6.470;2024-03-08T10:09:08;23.33;;;7.13;;
10896;SDS011;5501;51.176;6.470;2024-03-08T10:14:11;15.10;;;7.93;;
10896;SDS011;5501;51.176;6.470;2024-03-08T10:19:13;9.43;;;6.32;;
10896;SDS011;5501;51.176;6.470;2024-03-08T10:24:14;11.43;;;6.22;;
10896;SDS011;5501;51.176;6.470;2024-03-08T10:29:16;11.95;;;6.53;;
10896;SDS011;5501;51.176;6.470;2024-03-08T10:34:18;13.52;;;6.25;;
10896;SDS011;5501;51.176;6.470;2024-03-08T10:39:22;11.18;;;6.50;;
10896;SDS011;5501;51.176;6.470;2024-03-08T10:44:29;9.90;;;5.28;;
10896;SDS011;5501;51.176;6.470;2024-03-08T10:49:32;11.82;;;6.30;;
10896;SDS011;5501;51.176;6.470;2024-03-08T10:54:42;11.10;;;5.93;;
10896;SDS011;5501;51.176;6.470;2024-03-08T10:59:46;10.63;;;6.57;;
10896;SDS011;5501;51.176;6.470;2024-03-08T11:04:50;9.35;;;5.72;;
10896;SDS011;5501;51.176;6.470;2024-03-08T11:09:52;7.78;;;5.28;;
10896;SDS011;5501;51.176;6.470;2024-03-08T11:14:54;8.73;;;5.40;;
10896;SDS011;5501;51.176;6.470;2024-03-08T11:19:56;8.07;;;5.80;;
10896;SDS011;5501;51.176;6.470;2024-03-08T11:25:03;12.77;;;4.72;;
10896;SDS011;5501;51.176;6.470;2024-03-08T11:30:10;8.77;;;5.10;;
10896;SDS011;5501;51.176;6.470;2024-03-08T11:35:19;11.13;;;5.68;;
10896;SDS011;5501;51.176;6.470;2024-03-08T11:40:22;9.48;;;5.20;;
10896;SDS011;5501;51.176;6.470;2024-03-08T11:45:24;12.55;;;5.55;;
10896;SDS011;5501;51.176;6.470;2024-03-08T11:50:26;10.38;;;4.97;;
10896;SDS011;5501;51.176;6.470;2024-03-08T11:55:28;12.45;;;5.53;;
10896;SDS011;5501;51.176;6.470;2024-03-08T12:00:30;10.88;;;5.38;;
10896;SDS011;5501;51.176;6.470;2024-03-08T12:05:36;14.55;;;5.15;;
10896;SDS011;5501;51.176;6.470;2024-03-08T12:10:40;8.82;;;5.32;;
10896;SDS011;5501;51.176;6.470;2024-03-08T12:15:41;11.65;;;5.00;;
10896;SDS011;5501;51.176;6.470;2024-03-08T12:20:45;9.68;;;5.68;;
10896;SDS011;5501;51.176;6.470;2024-03-08T12:25:51;11.32;;;5.18;;
10896;SDS011;5501;51.176;6.470;2024-03-08T12:30:52;9.05;;;4.68;;
10896;SDS011;5501;51.176;6.470;2024-03-08T12:35:55;10.57;;;4.28;;
10896;SDS011;5501;51.176;6.470;2024-03-08T12:40:59;7.57;;;4.10;;
10896;SDS011;5501;51.176;6.470;2024-03-08T12:46:02;7.90;;;4.22;;
10896;SDS011;5501;51.176;6.470;2024-03-08T12:51:05;4.32;;;3.55;;
10896;SDS011;5501;51.176;6.470;2024-03-08T12:56:08;5.68;;;3.78;;
10896;SDS011;5501;51.176;6.470;2024-03-08T13:01:10;9.75;;;4.22;;
10896;SDS011;5501;51.176;6.470;2024-03-08T13:06:13;6.40;;;3.50;;
10896;SDS011;5501;51.176;6.470;2024-03-08T13:11:14;8.88;;;4.45;;
10896;SDS011;5501;51.176;6.470;2024-03-08T13:16:16;6.68;;;4.00;;
10896;SDS011;5501;51.176;6.470;2024-03-08T13:21:20;6.35;;;3.50;;
10896;SDS011;5501;51.176;6.470;2024-03-08T13:26:25;6.88;;;4.50;;
10896;SDS011;5501;51.176;6.470;2024-03-08T13:31:31;6.13;;;3.75;;
10896;SDS011;5501;51.176;6.470;2024-03-08T13:36:32;6.55;;;4.05;;
10896;SDS011;5501;51.176;6.470;2024-03-08T13:41:43;8.85;;;4.25;;
10896;SDS011;5501;51.176;6.470;2024-03-08T13:46:46;8.90;;;4.18;;
10896;SDS011;5501;51.176;6.470;2024-03-08T13:51:53;5.10;;;3.20;;
10896;SDS011;5501;51.176;6.470;2024-03-08T13:56:56;8.63;;;4.15;;
10896;SDS011;5501;51.176;6.470;2024-03-08T14:01:57;7.25;;;4.32;;
10896;SDS011;5501;51.176;6.470;2024-03-08T14:07:00;9.52;;;3.97;;
10896;SDS011;5501;51.176;6.470;2024-03-08T14:12:05;7.88;;;3.97;;
10896;SDS011;5501;51.176;6.470;2024-03-08T14:17:08;6.50;;;3.88;;
10896;SDS011;5501;51.176;6.470;2024-03-08T14:22:12;7.53;;;4.57;;
10896;SDS011;5501;51.176;6.470;2024-03-08T14:27:15;7.63;;;3.97;;
10896;SDS011;5501;51.176;6.470;2024-03-08T14:32:19;5.95;;;3.45;;
10896;SDS011;5501;51.176;6.470;2024-03-08T14:37:24;5.65;;;4.03;;
10896;SDS011;5501;51.176;6.470;2024-03-08T14:42:29;8.88;;;4.07;;
10896;SDS011;5501;51.176;6.470;2024-03-08T14:47:31;7.15;;;4.00;;
10896;SDS011;5501;51.176;6.470;2024-03-08T14:52:32;6.70;;;3.92;;
10896;SDS011;5501;51.176;6.470;2024-03-08T14:57:36;7.55;;;3.50;;
10896;SDS011;5501;51.176;6.470;2024-03-08T15:02:37;6.55;;;3.17;;
10896;SDS011;5501;51.176;6.470;2024-03-08T15:07:40;6.95;;;3.55;;
10896;SDS011;5501;51.176;6.470;2024-03-08T15:12:44;6.47;;;3.83;;
10896;SDS011;5501;51.176;6.470;2024-03-08T15:17:52;8.27;;;3.03;;
10896;SDS011;5501;51.176;6.470;2024-03-08T15:22:55;6.18;;;3.70;;
10896;SDS011;5501;51.176;6.470;2024-03-08T15:28:00;7.93;;;4.68;;
10896;SDS011;5501;51.176;6.470;2024-03-08T15:33:05;7.78;;;4.45;;
10896;SDS011;5501;51.176;6.470;2024-03-08T15:38:11;10.65;;;5.10;;
10896;SDS011;5501;51.176;6.470;2024-03-08T15:43:12;7.93;;;4.45;;
10896;SDS011;5501;51.176;6.470;2024-03-08T15:48:17;9.48;;;5.32;;
10896;SDS011;5501;51.176;6.470;2024-03-08T15:53:18;10.13;;;6.03;;
10896;SDS011;5501;51.176;6.470;2024-03-08T15:58:27;6.88;;;5.47;;
10896;SDS011;5501;51.176;6.470;2024-03-08T16:03:29;7.45;;;4.68;;
10896;SDS011;5501;51.176;6.470;2024-03-08T16:08:31;10.07;;;5.47;;
10896;SDS011;5501;51.176;6.470;2024-03-08T16:13:34;7.10;;;5.00;;
10896;SDS011;5501;51.176;6.470;2024-03-08T16:18:39;8.40;;;5.50;;
10896;SDS011;5501;51.176;6.470;2024-03-08T16:23:41;9.18;;;5.20;;
10896;SDS011;5501;51.176;6.470;2024-03-08T16:28:44;8.20;;;5.55;;
10896;SDS011;5501;51.176;6.470;2024-03-08T16:33:46;9.45;;;4.88;;
10896;SDS011;5501;51.176;6.470;2024-03-08T16:38:48;10.75;;;5.25;;
10896;SDS011;5501;51.176;6.470;2024-03-08T16:43:50;9.35;;;5.05;;
10896;SDS011;5501;51.176;6.470;2024-03-08T16:48:51;7.35;;;4.35;;
10896;SDS011;5501;51.176;6.470;2024-03-08T16:53:53;8.43;;;5.22;;
10896;SDS011;5501;51.176;6.470;2024-03-08T16:58:54;9.05;;;5.10;;
10896;SDS011;5501;51.176;6.470;2024-03-08T17:03:56;9.50;;;4.90;;
10896;SDS011;5501;51.176;6.470;2024-03-08T17:09:01;8.73;;;5.13;;
10896;SDS011;5501;51.176;6.470;2024-03-08T17:14:11;9.90;;;5.30;;
10896;SDS011;5501;51.176;6.470;2024-03-08T17:19:13;11.32;;;5.03;;
10896;SDS011;5501;51.176;6.470;2024-03-08T17:24:15;9.85;;;5.20;;
10896;SDS011;5501;51.176;6.470;2024-03-08T17:29:18;7.38;;;3.90;;
10896;SDS011;5501;51.176;6.470;2024-03-08T17:34:26;9.27;;;4.63;;
10896;SDS011;5501;51.176;6.470;2024-03-08T17:39:29;10.60;;;5.03;;
10896;SDS011;5501;51.176;6.470;2024-03-08T17:44:31;7.65;;;4.65;;
10896;SDS011;5501;51.176;6.470;2024-03-08T17:49:35;9.15;;;4.70;;
10896;SDS011;5501;51.176;6.470;2024-03-08T17:54:41;11.32;;;5.75;;
10896;SDS011;5501;51.176;6.470;2024-03-08T17:59:43;7.07;;;4.30;;
10896;SDS011;5501;51.176;6.470;2024-03-08T18:04:46;10.32;;;4.65;;
10896;SDS011;5501;51.176;6.470;2024-03-08T18:09:48;9.50;;;5.07;;
10896;SDS011;5501;51.176;6.470;2024-03-08T18:14:50;9.52;;;4.60;;
10896;SDS011;5501;51.176;6.470;2024-03-08T18:19:51;9.75;;;4.78;;
10896;SDS011;5501;51.176;6.470;2024-03-08T18:24:53;10.05;;;4.68;;
10896;SDS011;5501;51.176;6.470;2024-03-08T18:29:55;8.82;;;4.72;;
10896;SDS011;5501;51.176;6.470;2024-03-08T18:34:56;10.23;;;4.95;;
10896;SDS011;5501;51.176;6.470;2024-03-08T18:39:58;8.88;;;5.00;;
10896;SDS011;5501;51.176;6.470;2024-03-08T18:45:00;14.07;;;6.55;;
10896;SDS011;5501;51.176;6.470;2024-03-08T18:50:02;13.23;;;7.30;;
10896;SDS011;5501;51.176;6.470;2024-03-08T18:55:05;11.80;;;5.72;;
10896;SDS011;5501;51.176;6.470;2024-03-08T19:00:14;10.13;;;5.47;;
10896;SDS011;5501;51.176;6.470;2024-03-08T19:05:23;11.60;;;5.18;;
10896;SDS011;5501;51.176;6.470;2024-03-08T19:10:26;10.55;;;5.57;;
10896;SDS011;5501;51.176;6.470;2024-03-08T19:15:29;10.38;;;5.00;;
10896;SDS011;5501;51.176;6.470;2024-03-08T19:20:33;9.43;;;5.55;;
10896;SDS011;5501;51.176;6.470;2024-03-08T19:25:37;16.23;;;7.32;;
10896;SDS011;5501;51.176;6.470;2024-03-08T19:30:42;13.93;;;7.60;;
10896;SDS011;5501;51.176;6.470;2024-03-08T19:35:44;11.98;;;6.88;;
10896;SDS011;5501;51.176;6.470;2024-03-08T19:40:48;12.82;;;5.90;;
10896;SDS011;5501;51.176;6.470;2024-03-08T19:45:52;10.68;;;5.88;;
10896;SDS011;5501;51.176;6.470;2024-03-08T19:50:55;21.27;;;6.57;;
10896;SDS011;5501;51.176;6.470;2024-03-08T19:56:00;12.35;;;6.35;;
10896;SDS011;5501;51.176;6.470;2024-03-08T20:01:03;10.20;;;5.50;;
10896;SDS011;5501;51.176;6.470;2024-03-08T20:06:05;13.35;;;6.15;;
10896;SDS011;5501;51.176;6.470;2024-03-08T20:11:07;10.82;;;6.00;;
10896;SDS011;5501;51.176;6.470;2024-03-08T20:16:11;12.43;;;6.25;;
10896;SDS011;5501;51.176;6.470;2024-03-08T20:21:14;10.52;;;5.28;;
10896;SDS011;5501;51.176;6.470;2024-03-08T20:26:15;12.00;;;6.18;;
10896;SDS011;5501;51.176;6.470;2024-03-08T20:31:17;12.45;;;5.40;;
10896;SDS011;5501;51.176;6.470;2024-03-08T20:36:19;10.30;;;5.85;;
10896;SDS011;5501;51.176;6.470;2024-03-08T20:41:20;14.50;;;6.00;;
10896;SDS011;5501;51.176;6.470;2024-03-08T20:46:22;9.32;;;5.22;;
10896;SDS011;5501;51.176;6.470;2024-03-08T20:51:24;13.02;;;5.50;;
10896;SDS011;5501;51.176;6.470;2024-03-08T20:56:25;17.85;;;6.22;;
10896;SDS011;5501;51.176;6.470;2024-03-08T21:01:27;11.00;;;5.80;;
10896;SDS011;5501;51.176;6.470;2024-03-08T21:06:32;9.32;;;5.57;;
10896;SDS011;5501;51.176;6.470;2024-03-08T21:11:35;11.75;;;4.93;;
10896;SDS011;5501;51.176;6.470;2024-03-08T21:16:37;10.70;;;5.47;;
10896;SDS011;5501;51.176;6.470;2024-03-08T21:21:40;11.35;;;6.22;;
10896;SDS011;5501;51.176;6.470;2024-03-08T21:26:42;14.02;;;6.53;;
10896;SDS011;5501;51.176;6.470;2024-03-08T21:31:43;12.93;;;5.85;;
10896;SDS011;5501;51.176;6.470;2024-03-08T21:36:45;12.55;;;7.18;;
10896;SDS011;5501;51.176;6.470;2024-03-08T21:41:46;10.85;;;6.20;;
10896;SDS011;5501;51.176;6.470;2024-03-08T21:46:49;16.75;;;6.95;;
10896;SDS011;5501;51.176;6.470;2024-03-08T21:51:51;14.60;;;6.88;;
10896;SDS011;5501;51.176;6.470;2024-03-08T21:56:53;12.95;;;7.82;;
10896;SDS011;5501;51.176;6.470;2024-03-08T22:01:55;12.48;;;5.93;;
10896;SDS011;5501;51.176;6.470;2024-03-08T22:06:57;15.68;;;6.85;;
10896;SDS011;5501;51.176;6.470;2024-03-08T22:11:58;13.98;;;6.40;;
10896;SDS011;5501;51.176;6.470;2024-03-08T22:17:00;12.20;;;5.63;;
10896;SDS011;5501;51.176;6.470;2024-03-08T22:22:02;13.10;;;6.20;;
10896;SDS011;5501;51.176;6.470;2024-03-08T22:27:03;13.32;;;6.40;;
10896;SDS011;5501;51.176;6.470;2024-03-08T22:32:05;9.88;;;5.97;;
10896;SDS011;5501;51.176;6.470;2024-03-08T22:37:09;11.05;;;6.43;;
10896;SDS011;5501;51.176;6.470;2024-03-08T22:42:10;11.23;;;6.72;;
10896;SDS011;5501;51.176;6.470;2024-03-08T22:47:12;12.93;;;6.53;;
10896;SDS011;5501;51.176;6.470;2024-03-08T22:52:14;12.27;;;6.50;;
10896;SDS011;5501;51.176;6.470;2024-03-08T22:57:16;12.73;;;7.10;;
10896;SDS011;5501;51.176;6.470;2024-03-08T23:02:19;11.32;;;7.45;;
10896;SDS011;5501;51.176;6.470;2024-03-08T23:07:21;10.60;;;6.45;;
10896;SDS011;5501;51.176;6.470;2024-03-08T23:12:25;13.75;;;6.43;;
10896;SDS011;5501;51.176;6.470;2024-03-08T23:17:27;13.70;;;6.97;;
10896;SDS011;5501;51.176;6.470;2024-03-08T23:22:30;11.75;;;6.65;;
10896;SDS011;5501;51.176;6.470;2024-03-08T23:27:32;11.93;;;6.95;;
10896;SDS011;5501;51.176;6.470;2024-03-08T23:32:34;9.30;;;5.88;;
10896;SDS011;5501;51.176;6.470;2024-03-08T23:37:35;10.85;;;6.85;;
10896;SDS011;5501;51.176;6.470;2024-03-08T23:42:40;10.75;;;5.50;;
10896;SDS011;5501;51.176;6.470;2024-03-08T23:47:44;15.43;;;7.60;;
10896;SDS011;5501;51.176;6.470;2024-03-08T23:52:46;11.70;;;6.22;;
10896;SDS011;5501;51.176;6.470;2024-03-08T23:57:48;11.20;;;5.68;;
